地図

経路データ

SID SEASON NUMBER BASIN SUBBASIN NAME ISO_TIME NATURE LAT LON WMO_WIND WMO_PRES WMO_AGENCY TRACK_TYPE DIST2LAND LANDFALL IFLAG USA_AGENCY USA_ATCF_ID USA_LAT USA_LON USA_RECORD USA_STATUS USA_WIND USA_PRES USA_SSHS USA_R34_NE USA_R34_SE USA_R34_SW USA_R34_NW USA_R50_NE USA_R50_SE USA_R50_SW USA_R50_NW USA_R64_NE USA_R64_SE USA_R64_SW USA_R64_NW USA_POCI USA_ROCI USA_RMW USA_EYE TOKYO_LAT TOKYO_LON TOKYO_GRADE TOKYO_WIND TOKYO_PRES TOKYO_R50_DIR TOKYO_R50_LONG TOKYO_R50_SHORT TOKYO_R30_DIR TOKYO_R30_LONG TOKYO_R30_SHORT TOKYO_LAND CMA_LAT CMA_LON CMA_CAT CMA_WIND CMA_PRES HKO_LAT HKO_LON HKO_CAT HKO_WIND HKO_PRES NEWDELHI_LAT NEWDELHI_LON NEWDELHI_GRADE NEWDELHI_WIND NEWDELHI_PRES NEWDELHI_CI NEWDELHI_DP NEWDELHI_POCI REUNION_LAT REUNION_LON REUNION_TYPE REUNION_WIND REUNION_PRES REUNION_TNUM REUNION_CI REUNION_RMW REUNION_R34_NE REUNION_R34_SE REUNION_R34_SW REUNION_R34_NW REUNION_R50_NE REUNION_R50_SE REUNION_R50_SW REUNION_R50_NW REUNION_R64_NE REUNION_R64_SE REUNION_R64_SW REUNION_R64_NW BOM_LAT BOM_LON BOM_TYPE BOM_WIND BOM_PRES BOM_TNUM BOM_CI BOM_RMW BOM_R34_NE BOM_R34_SE BOM_R34_SW BOM_R34_NW BOM_R50_NE BOM_R50_SE BOM_R50_SW BOM_R50_NW BOM_R64_NE BOM_R64_SE BOM_R64_SW BOM_R64_NW BOM_ROCI BOM_POCI BOM_EYE BOM_POS_METHOD BOM_PRES_METHOD NADI_LAT NADI_LON NADI_CAT NADI_WIND NADI_PRES WELLINGTON_LAT WELLINGTON_LON WELLINGTON_WIND WELLINGTON_PRES DS824_LAT DS824_LON DS824_STAGE DS824_WIND DS824_PRES TD9636_LAT TD9636_LON TD9636_STAGE TD9636_WIND TD9636_PRES TD9635_LAT TD9635_LON TD9635_WIND TD9635_PRES TD9635_ROCI NEUMANN_LAT NEUMANN_LON NEUMANN_CLASS NEUMANN_WIND NEUMANN_PRES MLC_LAT MLC_LON MLC_CLASS MLC_WIND MLC_PRES USA_GUST BOM_GUST BOM_GUST_PER REUNION_GUST REUNION_GUST_PER USA_SEAHGT USA_SEARAD_NE USA_SEARAD_SE USA_SEARAD_SW USA_SEARAD_NW STORM_SPEED STORM_DIR
1864052S14079 1864 3 SI MM NOT_NAMED 1864-02-21 06:00:00 NR -13.9000 78.8000 reunion main 2227 2227 _____O________ -1 -13.9000 78.8000 99 9.90000 1 233
1864052S14079 1864 3 SI MM NOT_NAMED 1864-02-21 09:00:00 NR -13.9336 78.7532 main 2227 2227 _____P________ -1 -13.9336 78.7532 99 1 235
1864052S14079 1864 3 SI MM NOT_NAMED 1864-02-21 12:00:00 NR -13.9676 78.7013 main 2239 2239 _____P________ -1 -13.9676 78.7013 99 1 238
1864052S14079 1864 3 SI MM NOT_NAMED 1864-02-21 15:00:00 NR -14.0023 78.6393 main 2240 2238 _____P________ -1 -14.0023 78.6393 99 1 91
1864052S14079 1864 3 SI MM NOT_NAMED 1864-02-21 18:00:00 NR -13.9705 78.8497 main 2238 2237 _____P____O___ -1 -14.0381 78.5621 99 -13.7000 80.0000 7 2 90
1864052S14079 1864 3 SI MM NOT_NAMED 1864-02-21 21:00:00 NR -14.0022 78.8063 main 2238 2238 _____P____P___ -1 -14.0755 78.4647 99 -13.8555 79.4896 7 2 246
1864052S14079 1864 3 SI MM NOT_NAMED 1864-02-22 00:00:00 NR -14.0691 78.6166 main 2251 2251 _____P____P___ -1 -14.1147 78.3419 99 -14.0083 78.9830 7 5 251
1864052S14079 1864 3 SI MM NOT_NAMED 1864-02-22 03:00:00 NR -14.1566 78.3368 main 2266 2249 _____P____P___ -1 -14.1561 78.1887 99 -14.1570 78.4849 7 6 253
1864052S14079 1864 3 SI MM NOT_NAMED 1864-02-22 06:00:00 NR -14.2500 78.0000 reunion main 2249 2215 _____O____O___ -1 -14.2000 78.0000 99 9.90000 -14.3000 78.0000 7 7 254
1864052S14079 1864 3 SI MM NOT_NAMED 1864-02-22 09:00:00 NR -14.3417 77.6523 main 2215 2170 _____P____P___ -1 -14.2473 77.7716 99 -14.4360 77.5330 7 7 255
1864052S14079 1864 3 SI MM NOT_NAMED 1864-02-22 12:00:00 NR -14.4332 77.2961 main 2170 2136 _____P____P___ -1 -14.3015 77.5022 99 -14.5648 77.0899 7 7 255
1864052S14079 1864 3 SI MM NOT_NAMED 1864-02-22 15:00:00 NR -14.5264 76.9342 main 2126 2092 _____P____P___ -1 -14.3667 77.1916 99 -14.6861 76.6768 7 7 255
1864052S14079 1864 3 SI MM NOT_NAMED 1864-02-22 18:00:00 NR -14.6235 76.5696 main 2092 2058 _____P____O___ -1 -14.4470 76.8392 99 -14.8000 76.3000 7 7 254
1864052S14079 1864 3 SI MM NOT_NAMED 1864-02-22 21:00:00 NR -14.7140 76.2363 main 2048 2013 _____P____P___ -1 -14.5465 76.4445 99 -14.8816 76.0281 7 7 254
1864052S14079 1864 3 SI MM NOT_NAMED 1864-02-23 00:00:00 NR -14.8149 75.8940 main 2013 1969 _____P____P___ -1 -14.6691 76.0069 99 -14.9606 75.7810 7 7 252
1864052S14079 1864 3 SI MM NOT_NAMED 1864-02-23 03:00:00 NR -14.9392 75.5096 main 1969 1921 _____P____P___ -1 -14.8189 75.5257 99 -15.0594 75.4935 7 9 251
1864052S14079 1864 3 SI MM NOT_NAMED 1864-02-23 06:00:00 NR -15.1000 75.0500 reunion main 1921 1853 _____O____O___ -1 -15.0000 75.0000 99 9.90000 -15.2000 75.1000 7 11 250
1864052S14079 1864 3 SI MM NOT_NAMED 1864-02-23 09:00:00 NR -15.3084 74.4720 main 1853 1785 _____P____P___ -1 -15.2129 74.4407 99 -15.4038 74.5033 7 13 249
1864052S14079 1864 3 SI MM NOT_NAMED 1864-02-23 12:00:00 NR -15.5528 73.8145 main 1771 1703 _____P____P___ -1 -15.4566 73.8309 99 -15.6489 73.7980 7 14 249
1864052S14079 1864 3 SI MM NOT_NAMED 1864-02-23 15:00:00 NR -15.8228 73.1115 main 1693 1611 _____P____P___ -1 -15.7263 73.1792 99 -15.9193 73.0437 7 15 248
1864052S14079 1864 3 SI MM NOT_NAMED 1864-02-23 18:00:00 NR -16.1086 72.3972 main 1611 1540 _____P____O___ -1 -16.0171 72.4944 99 -16.2000 72.3000 7 15 247
1864052S14079 1864 3 SI MM NOT_NAMED 1864-02-23 21:00:00 NR -16.3935 71.7251 main 1529 1458 _____P____P___ -1 -16.3244 71.7853 99 -16.4626 71.6649 7 14 246
1864052S14079 1864 3 SI MM NOT_NAMED 1864-02-24 00:00:00 NR -16.6885 71.0547 main 1458 1377 _____P____P___ -1 -16.6436 71.0605 99 -16.7334 71.0489 7 14 245
1864052S14079 1864 3 SI MM NOT_NAMED 1864-02-24 03:00:00 NR -16.9914 70.3813 main 1377 1296 _____P____P___ -1 -16.9702 70.3292 99 -17.0126 70.4335 7 14 245
1864052S14079 1864 3 SI MM NOT_NAMED 1864-02-24 06:00:00 NR -17.3000 69.7000 reunion main 1296 1215 _____O____O___ -1 -17.3000 69.6000 99 9.90000 -17.3000 69.8000 7 15 245
1864052S14079 1864 3 SI MM NOT_NAMED 1864-02-24 09:00:00 NR -17.6044 69.0012 main 1215 1135 _____P____P___ -1 -17.6290 68.8616 99 -17.5797 69.1407 7 15 245
1864052S14079 1864 3 SI MM NOT_NAMED 1864-02-24 12:00:00 NR -17.9178 68.2855 main 1135 1055 _____P____P___ -1 -17.9669 68.1128 99 -17.8686 68.4582 7 15 245
1864052S14079 1864 3 SI MM NOT_NAMED 1864-02-24 15:00:00 NR -18.2408 67.5553 main 1055 972 _____P____P___ -1 -18.3084 67.3640 99 -18.1732 67.7466 7 15 245
1864052S14079 1864 3 SI MM NOT_NAMED 1864-02-24 18:00:00 NR -18.5743 66.8129 main 962 883 _____P____O___ -1 -18.6486 66.6258 99 -18.5000 67.0000 7 16 244
1864052S14079 1864 3 SI MM NOT_NAMED 1864-02-24 21:00:00 NR -18.9350 66.0225 main 872 792 _____P____P___ -1 -18.9825 65.9092 99 -18.8875 66.1358 7 17 244
1864052S14079 1864 3 SI MM NOT_NAMED 1864-02-25 00:00:00 NR -19.2977 65.2366 main 782 704 _____P____P___ -1 -19.3054 65.2251 99 -19.2900 65.2480 7 16 244
1864052S14079 1864 3 SI MM NOT_NAMED 1864-02-25 03:00:00 NR -19.6424 64.4979 main 704 638 _____P____P___ -1 -19.6127 64.5849 99 -19.6722 64.4108 7 15 243
1864052S14079 1864 3 SI MM NOT_NAMED 1864-02-25 06:00:00 NR -19.9500 63.8500 reunion main 638 584 _____O____O___ -1 -19.9000 64.0000 99 9.90000 -20.0000 63.7000 7 12 243
1864052S14079 1864 3 SI MM NOT_NAMED 1864-02-25 09:00:00 NR -20.1866 63.3456 main 573 542 _____P____P___ -1 -20.1470 63.4879 99 -20.2261 63.2032 7 10 243
1864052S14079 1864 3 SI MM NOT_NAMED 1864-02-25 12:00:00 NR -20.3877 62.9350 main 531 500 _____P____P___ -1 -20.3757 63.0299 99 -20.3998 62.8400 7 8 242
1864052S14079 1864 3 SI MM NOT_NAMED 1864-02-25 15:00:00 NR -20.5695 62.5878 main 501 470 _____P____P___ -1 -20.5904 62.6187 99 -20.5487 62.5569 7 7 240
1864052S14079 1864 3 SI MM NOT_NAMED 1864-02-25 18:00:00 NR -20.7477 62.2734 main 470 442 _____P____O___ -1 -20.7955 62.2468 99 -20.7000 62.3000 7 7 238
1864052S14079 1864 3 SI MM NOT_NAMED 1864-02-25 21:00:00 NR -20.9396 61.9519 main 442 415 _____P____P___ -1 -20.9949 61.9065 99 -20.8842 61.9973 7 7 236
1864052S14079 1864 3 SI MM NOT_NAMED 1864-02-26 00:00:00 NR -21.1349 61.6486 main 405 390 _____P____P___ -1 -21.1929 61.5904 99 -21.0769 61.7067 7 7 235
1864052S14079 1864 3 SI MM NOT_NAMED 1864-02-26 03:00:00 NR -21.3372 61.3518 main 390 368 _____P____P___ -1 -21.3933 61.2908 99 -21.2811 61.4128 7 7 233
1864052S14079 1864 3 SI MM NOT_NAMED 1864-02-26 06:00:00 NR -21.5500 61.0500 reunion main 368 343 _____O____O___ -1 -21.6000 61.0000 99 9.90000 -21.5000 61.1000 7 8 233
1864052S14079 1864 3 SI MM NOT_NAMED 1864-02-26 09:00:00 NR -21.7873 60.7006 main 343 326 _____P____P___ -1 -21.8429 60.6628 99 -21.7317 60.7384 7 8 233
1864052S14079 1864 3 SI MM NOT_NAMED 1864-02-26 12:00:00 NR -22.0349 60.3479 main 317 311 _____P____P___ -1 -22.0922 60.3384 99 -21.9777 60.3574 7 8 232
1864052S14079 1864 3 SI MM NOT_NAMED 1864-02-26 15:00:00 NR -22.2894 60.0001 main 311 303 _____P____P___ -1 -22.3439 60.0275 99 -22.2348 59.9727 7 8 231
1864052S14079 1864 3 SI MM NOT_NAMED 1864-02-26 18:00:00 NR -22.5470 59.6653 main 304 302 _____P____O___ -1 -22.5941 59.7307 99 -22.5000 59.6000 7 8 229
1864052S14079 1864 3 SI MM NOT_NAMED 1864-02-26 21:00:00 NR -22.8154 59.3426 main 305 305 _____P____P___ -1 -22.8387 59.4487 99 -22.7921 59.2365 7 8 227
1864052S14079 1864 3 SI MM NOT_NAMED 1864-02-27 00:00:00 NR -23.0807 59.0364 main 320 320 _____P____P___ -1 -23.0739 59.1824 99 -23.0875 58.8905 7 7 227
1864052S14079 1864 3 SI MM NOT_NAMED 1864-02-27 03:00:00 NR -23.3299 58.7533 main 332 329 _____P____P___ -1 -23.2956 58.9326 99 -23.3641 58.5741 7 7 226
1864052S14079 1864 3 SI MM NOT_NAMED 1864-02-27 06:00:00 NR -23.5500 58.5000 reunion main 345 354 _____O____O___ -1 -23.5000 58.7000 99 9.90000 -23.6000 58.3000 7 6 228
1864052S14079 1864 3 SI MM NOT_NAMED 1864-02-27 09:00:00 NR -23.7148 58.2844 main 363 361 _____P____P___ -1 -23.6701 58.4837 99 -23.7596 58.0851 7 5 231
1864052S14079 1864 3 SI MM NOT_NAMED 1864-02-27 12:00:00 NR -23.8513 58.0992 main 374 368 _____P____P___ -1 -23.8231 58.2870 99 -23.8795 57.9114 7 4 231
1864052S14079 1864 3 SI MM NOT_NAMED 1864-02-27 15:00:00 NR -23.9738 57.9316 main 370 364 _____P____P___ -1 -23.9629 58.1061 99 -23.9846 57.7571 7 4 231
1864052S14079 1864 3 SI MM NOT_NAMED 1864-02-27 18:00:00 NR -24.0967 57.7685 main 374 368 _____P____O___ -1 -24.0934 57.9370 99 -24.1000 57.6000 7 4 230
1864052S14079 1864 3 SI MM NOT_NAMED 1864-02-27 21:00:00 NR -24.2436 57.5855 main 372 372 _____P____P___ -1 -24.2185 57.7758 99 -24.2688 57.3952 7 4 228
1864052S14079 1864 3 SI MM NOT_NAMED 1864-02-28 00:00:00 NR -24.3961 57.4019 main 382 377 _____P____P___ -1 -24.3421 57.6186 99 -24.4501 57.1853 7 5 227
1864052S14079 1864 3 SI MM NOT_NAMED 1864-02-28 03:00:00 NR -24.5496 57.2220 main 383 383 _____P____P___ -1 -24.4680 57.4613 99 -24.6313 56.9827 7 4 226
1864052S14079 1864 3 SI MM NOT_NAMED 1864-02-28 06:00:00 NR -24.7000 57.0500 reunion main 399 395 _____O____O___ -1 -24.6000 57.3000 99 9.90000 -24.8000 56.8000 7 4 226
1864052S14079 1864 3 SI MM NOT_NAMED 1864-02-28 09:00:00 NR -24.8510 56.8795 main 413 409 _____P____P___ -1 -24.7628 57.1059 99 -24.9392 56.6531 7 4 225
1864052S14079 1864 3 SI MM NOT_NAMED 1864-02-28 12:00:00 NR -24.9980 56.7177 main 417 417 _____P____P___ -1 -24.9311 56.9084 99 -25.0648 56.5271 7 4 225
1864052S14079 1864 3 SI MM NOT_NAMED 1864-02-28 15:00:00 NR -25.1425 56.5613 main 425 425 _____P____P___ -1 -25.1020 56.7099 99 -25.1830 56.4126 7 4 224
1864052S14079 1864 3 SI MM NOT_NAMED 1864-02-28 18:00:00 NR -25.2864 56.4067 main 443 441 _____P____O___ -1 -25.2728 56.5134 99 -25.3000 56.3000 7 4 224
1864052S14079 1864 3 SI MM NOT_NAMED 1864-02-28 21:00:00 NR -25.4307 56.2516 main 452 451 _____P____P___ -1 -25.4407 56.3213 99 -25.4207 56.1818 7 4 223
1864052S14079 1864 3 SI MM NOT_NAMED 1864-02-29 00:00:00 NR -25.5782 56.1028 main 472 471 _____P____P___ -1 -25.6031 56.1366 99 -25.5452 56.0578 7 4 222
1864052S14079 1864 3 SI MM NOT_NAMED 1864-02-29 03:00:00 NR -25.7287 55.9512 main 482 481 _____P____P___ -1 -25.7570 55.9618 99 -25.6720 55.9300 7 4 222
1864052S14079 1864 3 SI MM NOT_NAMED 1864-02-29 06:00:00 NR -25.8800 55.8000 reunion main 503 503 _____O____O___ -1 -25.9000 55.8000 99 9.90000 -25.8000 55.8000 7 4 222
1864052S14079 1864 3 SI MM NOT_NAMED 1864-02-29 09:00:00 NR -26.0300 55.6530 main 514 514 _____P________ -1 -26.0300 55.6530 99 7 4 223
1864052S14079 1864 3 SI MM NOT_NAMED 1864-02-29 12:00:00 NR -26.1479 55.5198 main 525 525 _____P________ -1 -26.1479 55.5198 99 7 3 225
1864052S14079 1864 3 SI MM NOT_NAMED 1864-02-29 15:00:00 NR -26.2556 55.3985 main 548 548 _____P________ -1 -26.2556 55.3985 99 7 3 225
1864052S14079 1864 3 SI MM NOT_NAMED 1864-02-29 18:00:00 NR -26.3548 55.2870 main 559 559 _____P________ -1 -26.3548 55.2870 99 3 225
1864052S14079 1864 3 SI MM NOT_NAMED 1864-02-29 21:00:00 NR -26.4471 55.1834 main 560 560 _____P________ -1 -26.4471 55.1834 99 3 226
1864052S14079 1864 3 SI MM NOT_NAMED 1864-03-01 00:00:00 NR -26.5343 55.0857 main 572 572 _____P________ -1 -26.5343 55.0857 99 2 226
1864052S14079 1864 3 SI MM NOT_NAMED 1864-03-01 03:00:00 NR -26.6180 54.9919 main 584 584 _____P________ -1 -26.6180 54.9919 99 2 226
1864052S14079 1864 3 SI MM NOT_NAMED 1864-03-01 06:00:00 NR -26.7000 54.9000 reunion main 596 _____O________ -1 -26.7000 54.9000 99 9.90000 2 223

IBTrACS Databaseについて

本データベースは、米国NOAAが公開する1842年以降の世界の熱帯低気圧のベストトラックデータアーカイブInternational Best Track Archive for Climate Stewardship (IBTrACS)を、ウェブで閲覧しやすい形式に変換したものです。

最終更新日:2021-12-06